Time;durP1;ratioP1;P1;durP2;ratioP2;P2;SDS_P1;SDS_P2;PMS_P1;PMS_P2;Temp;Humidity;BMP_temperature;BMP_pressure;BME280_temperature;BME280_humidity;BME280_pressure;Samples;Min_cycle;Max_cycle;Signal;HPM_P1;HPM_P2
2023/07/25 00:00:36;;;;;;;6.57;4.85;;;;;;;20.14;100.00;98975.28;5055647;28;20474;-77
2023/07/25 00:03:02;;;;;;;8.43;4.10;;;;;;;20.02;100.00;98976.34;5037830;28;20029;-78
2023/07/25 00:05:29;;;;;;;9.63;4.72;;;;;;;19.99;100.00;98975.41;5055745;28;20025;-76
2023/07/25 00:07:57;;;;;;;10.52;5.00;;;;;;;19.94;100.00;98979.31;5054207;28;20079;-78
2023/07/25 00:10:26;;;;;;;10.07;4.80;;;;;;;19.91;100.00;98984.13;5055797;28;20090;-77
2023/07/25 00:12:54;;;;;;;8.90;4.78;;;;;;;19.85;100.00;98989.41;5055489;28;20053;-79
2023/07/25 00:15:21;;;;;;;9.10;4.68;;;;;;;19.84;100.00;99001.56;5055513;28;20025;-77
2023/07/25 00:17:49;;;;;;;10.32;5.10;;;;;;;19.79;100.00;99003.34;5053272;28;20423;-77
2023/07/25 00:20:17;;;;;;;9.45;4.72;;;;;;;19.73;100.00;99017.28;5054235;28;20033;-77
2023/07/25 00:22:43;;;;;;;8.77;4.30;;;;;;;19.65;100.00;99007.88;5055380;28;20094;-78
2023/07/25 00:25:12;;;;;;;7.88;4.68;;;;;;;19.63;100.00;99012.72;5055336;28;20025;-77
2023/07/25 00:27:40;;;;;;;13.57;5.00;;;;;;;19.58;100.00;99014.47;5055373;28;20493;-77
2023/07/25 00:30:08;;;;;;;8.23;4.20;;;;;;;19.58;100.00;99022.41;5055346;28;20029;-77
2023/07/25 00:32:34;;;;;;;11.05;5.20;;;;;;;19.52;100.00;99029.19;5053886;28;20137;-77
2023/07/25 00:35:03;;;;;;;12.20;4.70;;;;;;;19.48;100.00;99014.34;5053967;28;20051;-77
2023/07/25 00:37:30;;;;;;;7.70;4.53;;;;;;;19.44;100.00;99025.56;5055229;28;20017;-76
2023/07/25 00:39:57;;;;;;;8.98;4.30;;;;;;;19.41;100.00;99023.06;5037367;28;20037;-78
2023/07/25 00:42:24;;;;;;;10.93;4.72;;;;;;;19.34;100.00;99024.63;5054021;28;20505;-76
2023/07/25 00:44:58;;;;;;;6.50;4.43;;;;;;;19.36;100.00;99019.00;5055067;28;20025;-78
2023/07/25 00:47:24;;;;;;;7.82;4.20;;;;;;;19.30;100.00;99020.59;5054993;28;20099;-77
2023/07/25 00:49:50;;;;;;;11.02;4.63;;;;;;;19.35;100.00;99037.78;5053634;28;20439;-76
2023/07/25 00:52:16;;;;;;;10.20;4.10;;;;;;;19.27;100.00;99039.13;5053565;28;20390;-77
2023/07/25 00:54:48;;;;;;;15.00;4.50;;;;;;;19.29;100.00;99036.44;5053543;28;20025;-78
2023/07/25 00:57:17;;;;;;;6.28;3.78;;;;;;;19.22;100.00;99025.63;5037056;28;20033;-77
2023/07/25 00:59:43;;;;;;;6.20;3.95;;;;;;;19.20;100.00;99031.25;5053304;28;20066;-77
2023/07/25 01:02:09;;;;;;;9.43;3.90;;;;;;;19.16;100.00;99020.09;5053286;28;20025;-77
2023/07/25 01:04:37;;;;;;;12.18;4.00;;;;;;;19.18;100.00;99022.38;5053415;28;20508;-79
2023/07/25 01:07:07;;;;;;;7.25;3.50;;;;;;;19.03;100.00;99005.78;5053404;28;20036;-77
2023/07/25 01:09:42;;;;;;;7.13;3.72;;;;;;;19.11;100.00;99024.72;5036763;28;20021;-77
2023/07/25 01:12:11;;;;;;;7.85;4.15;;;;;;;19.09;100.00;99021.63;5054371;28;20029;-78
2023/07/25 01:14:37;;;;;;;9.63;4.38;;;;;;;19.03;100.00;99009.47;5052803;28;20057;-78
2023/07/25 01:17:11;;;;;;;7.90;4.30;;;;;;;19.04;100.00;99021.81;5053724;28;20549;-77
2023/07/25 01:19:46;;;;;;;7.43;4.05;;;;;;;19.01;100.00;99023.00;5053270;28;20033;-76
2023/07/25 01:22:13;;;;;;;8.15;4.03;;;;;;;18.95;100.00;99020.31;5053179;28;20028;-77
2023/07/25 01:24:51;;;;;;;11.02;3.75;;;;;;;18.90;100.00;99017.63;5053083;28;20056;-78
2023/07/25 01:27:18;;;;;;;7.40;3.88;;;;;;;18.83;100.00;99015.50;5036028;28;20036;-77
2023/07/25 01:29:44;;;;;;;9.77;4.50;;;;;;;18.75;100.00;99006.84;5035535;28;20032;-78
2023/07/25 01:32:10;;;;;;;9.00;4.18;;;;;;;18.77;100.00;99026.53;5052928;28;20020;-79
2023/07/25 01:34:38;;;;;;;8.32;4.18;;;;;;;18.74;100.00;99034.25;5053191;28;20021;-79
2023/07/25 01:37:12;;;;;;;8.82;4.20;;;;;;;18.73;100.00;99040.59;5036266;28;20033;-78
2023/07/25 01:39:39;;;;;;;9.45;4.35;;;;;;;18.68;100.00;99048.13;5052637;28;20025;-79
2023/07/25 01:42:06;;;;;;;7.40;3.63;;;;;;;18.65;100.00;99043.50;5054080;28;20025;-77
2023/07/25 01:44:34;;;;;;;10.82;4.03;;;;;;;18.62;100.00;99048.31;5069224;28;20120;-76
2023/07/25 01:47:00;;;;;;;10.68;3.80;;;;;;;18.59;100.00;99060.28;5053752;28;20029;-78
2023/07/25 01:49:27;;;;;;;8.13;4.10;;;;;;;18.53;100.00;99056.81;5053839;28;20055;-78
2023/07/25 01:51:54;;;;;;;9.10;4.95;;;;;;;18.46;100.00;99052.59;5053568;28;20024;-78
2023/07/25 01:54:19;;;;;;;7.72;4.35;;;;;;;18.45;100.00;99053.16;5068948;28;20031;-78
2023/07/25 01:56:45;;;;;;;12.60;4.32;;;;;;;18.43;100.00;99052.97;5052489;28;20021;-77
2023/07/25 01:59:12;;;;;;;8.98;3.72;;;;;;;18.38;100.00;99043.13;5068878;28;20378;-77
2023/07/25 02:01:38;;;;;;;8.48;3.55;;;;;;;18.33;100.00;99052.00;5035715;28;20073;-77
2023/07/25 02:04:05;;;;;;;8.13;3.78;;;;;;;18.32;100.00;99047.59;5052181;28;20041;-78
2023/07/25 02:06:31;;;;;;;8.40;3.22;;;;;;;18.27;100.00;99026.16;5019481;28;20094;-79
2023/07/25 02:08:58;;;;;;;6.20;3.22;;;;;;;18.31;100.00;99026.56;5053176;28;20033;-78
2023/07/25 02:11:25;;;;;;;5.32;3.15;;;;;;;18.26;100.00;99036.94;5059496;28;20027;-77
2023/07/25 02:13:53;;;;;;;7.10;2.95;;;;;;;18.24;100.00;99044.63;5055240;28;20087;-78
2023/07/25 02:16:20;;;;;;;6.05;3.00;;;;;;;18.24;100.00;99048.31;5037616;28;20033;-79
2023/07/25 02:18:46;;;;;;;9.88;3.05;;;;;;;18.23;100.00;99046.75;5053725;28;20017;-80
2023/07/25 02:21:14;;;;;;;4.80;2.58;;;;;;;18.25;100.00;99043.28;5052083;28;20028;-77
2023/07/25 02:23:40;;;;;;;3.53;2.28;;;;;;;18.31;100.00;99046.03;5051983;28;20119;-77
2023/07/25 02:26:06;;;;;;;6.57;2.22;;;;;;;18.31;100.00;99046.81;5053269;28;20032;-78
2023/07/25 02:28:34;;;;;;;7.03;2.90;;;;;;;18.24;100.00;99030.19;5053157;28;20113;-79
2023/07/25 02:31:00;;;;;;;6.38;2.90;;;;;;;18.31;100.00;99043.16;5053305;28;20074;-76
2023/07/25 02:33:26;;;;;;;5.13;2.60;;;;;;;18.26;100.00;99041.94;5052167;28;20111;-78
2023/07/25 02:35:54;;;;;;;5.55;2.40;;;;;;;18.24;100.00;99044.63;5053215;28;20474;-78
2023/07/25 02:38:20;;;;;;;3.25;2.38;;;;;;;18.24;100.00;99045.41;5068413;28;20060;-77
2023/07/25 02:40:46;;;;;;;10.15;2.72;;;;;;;18.15;100.00;99036.53;5055160;28;20458;-79
2023/07/25 02:43:14;;;;;;;4.45;2.55;;;;;;;18.25;100.00;99061.44;5057631;28;20028;-77
2023/07/25 02:45:41;;;;;;;3.90;2.35;;;;;;;18.25;100.00;99055.63;5057027;28;20040;-77
2023/07/25 02:48:09;;;;;;;6.40;2.70;;;;;;;18.24;100.00;99053.31;5057310;28;20084;-77
2023/07/25 02:50:35;;;;;;;5.10;2.75;;;;;;;18.14;100.00;99049.44;5056932;28;20017;-78
2023/07/25 02:53:02;;;;;;;3.95;2.47;;;;;;;18.01;100.00;99026.50;5055973;28;20025;-76
2023/07/25 02:55:37;;;;;;;2.88;2.17;;;;;;;18.11;100.00;99047.72;5057226;28;20385;-77
2023/07/25 02:58:04;;;;;;;5.97;2.80;;;;;;;18.11;100.00;99047.72;5056039;28;20074;-77
2023/07/25 03:00:30;;;;;;;7.05;2.55;;;;;;;18.09;100.00;99044.63;5022411;28;20057;-77
2023/07/25 03:02:56;;;;;;;4.38;2.65;;;;;;;18.07;100.00;99061.78;5055669;28;20035;-76
2023/07/25 03:05:27;;;;;;;4.45;2.47;;;;;;;18.02;100.00;99051.97;5053000;28;20029;-78
2023/07/25 03:08:01;;;;;;;3.80;2.30;;;;;;;17.92;100.00;99047.31;5039065;28;20032;-77
2023/07/25 03:10:28;;;;;;;5.72;2.83;;;;;;;17.96;100.00;99057.16;5056914;28;20327;-76
2023/07/25 03:12:54;;;;;;;5.30;2.08;;;;;;;17.96;100.00;99054.25;5056577;28;20053;-78
2023/07/25 03:15:20;;;;;;;4.90;2.95;;;;;;;17.86;100.00;99044.59;5056628;28;20028;-77
2023/07/25 03:17:47;;;;;;;4.43;2.88;;;;;;;17.96;100.00;99065.81;5038678;28;20017;-79
2023/07/25 03:20:15;;;;;;;3.80;2.08;;;;;;;17.92;100.00;99071.22;5055351;28;20171;-78
2023/07/25 03:22:41;;;;;;;5.05;2.17;;;;;;;17.83;100.00;99049.38;5055562;28;20036;-77
2023/07/25 03:25:08;;;;;;;4.07;2.10;;;;;;;17.87;100.00;99063.50;5056507;28;20484;-77
2023/07/25 03:27:35;;;;;;;3.05;1.90;;;;;;;17.82;100.00;99067.31;5055073;28;20043;-76
2023/07/25 03:30:04;;;;;;;6.03;2.42;;;;;;;17.82;100.00;99070.22;5055622;28;20025;-77
2023/07/25 03:32:30;;;;;;;6.18;2.22;;;;;;;17.80;100.00;99059.22;5055147;28;20086;-76
2023/07/25 03:34:56;;;;;;;5.68;2.30;;;;;;;17.76;100.00;99055.94;5055110;28;20431;-77
2023/07/25 03:37:23;;;;;;;2.97;1.90;;;;;;;17.69;100.00;99059.56;5054404;28;20115;-79
2023/07/25 03:39:48;;;;;;;3.33;2.08;;;;;;;17.71;100.00;99056.88;5054097;28;20033;-76
2023/07/25 03:42:16;;;;;;;4.40;2.67;;;;;;;17.71;100.00;99065.56;5056029;28;20431;-77
2023/07/25 03:44:41;;;;;;;3.28;1.65;;;;;;;17.74;100.00;99067.28;5055962;28;20024;-78
2023/07/25 03:47:07;;;;;;;2.25;2.00;;;;;;;17.78;100.00;99069.81;5055857;28;20021;-78
2023/07/25 03:49:33;;;;;;;2.40;1.73;;;;;;;17.82;100.00;99068.09;5055937;28;20078;-78
2023/07/25 03:51:59;;;;;;;2.55;1.73;;;;;;;17.87;100.00;99063.50;5053524;28;20407;-77
2023/07/25 03:54:28;;;;;;;5.07;1.90;;;;;;;17.86;100.00;99067.72;5055740;28;20029;-77
2023/07/25 03:56:54;;;;;;;5.07;1.98;;;;;;;17.82;100.00;99079.66;5055917;28;20024;-81
2023/07/25 03:59:21;;;;;;;4.10;1.70;;;;;;;17.77;100.00;99077.72;5055719;28;20462;-78
2023/07/25 04:01:47;;;;;;;2.67;1.90;;;;;;;17.71;100.00;99068.44;5056080;28;20103;-78
2023/07/25 04:04:13;;;;;;;6.80;2.20;;;;;;;17.66;100.00;99068.63;5056035;28;20433;-79
2023/07/25 04:06:40;;;;;;;2.35;1.85;;;;;;;17.65;100.00;99082.28;5055579;28;20024;-78
2023/07/25 04:09:13;;;;;;;2.58;1.67;;;;;;;17.61;100.00;99090.56;5054230;28;20033;-78
2023/07/25 04:11:39;;;;;;;3.15;1.90;;;;;;;17.63;100.00;99111.00;5054380;28;20029;-78
2023/07/25 04:14:06;;;;;;;3.92;1.98;;;;;;;17.65;100.00;99102.50;5053862;28;20094;-77
2023/07/25 04:16:32;;;;;;;5.82;2.10;;;;;;;17.65;100.00;99107.53;5054238;28;20041;-79
2023/07/25 04:18:58;;;;;;;2.33;1.65;;;;;;;17.68;100.00;99118.72;5053830;28;20035;-78
2023/07/25 04:21:24;;;;;;;1.80;1.40;;;;;;;17.68;100.00;99127.41;5055555;28;20377;-78
2023/07/25 04:23:51;;;;;;;5.60;1.65;;;;;;;17.77;100.00;99140.53;5054401;28;20040;-78
2023/07/25 04:26:17;;;;;;;3.25;1.73;;;;;;;17.73;100.00;99128.56;5053939;28;20076;-77
2023/07/25 04:28:46;;;;;;;1.92;1.70;;;;;;;17.78;100.00;99137.03;5055170;28;20025;-77
2023/07/25 04:31:13;;;;;;;3.53;2.03;;;;;;;17.73;100.00;99140.88;5055067;28;20025;-78
2023/07/25 04:33:39;;;;;;;2.75;1.77;;;;;;;17.78;100.00;99139.19;5055355;28;20029;-77
2023/07/25 04:36:13;;;;;;;5.43;1.70;;;;;;;17.70;100.00;99121.03;5055102;28;20041;-78
2023/07/25 04:38:40;;;;;;;3.45;1.80;;;;;;;17.74;100.00;99135.88;5054836;28;20532;-77
2023/07/25 04:41:14;;;;;;;2.05;1.60;;;;;;;17.75;100.00;99137.41;5054755;28;20037;-78
2023/07/25 04:43:40;;;;;;;2.97;1.90;;;;;;;17.71;100.00;99117.56;5054895;28;20056;-78
2023/07/25 04:46:06;;;;;;;3.72;2.20;;;;;;;17.82;100.00;99113.56;5054981;28;20029;-75
2023/07/25 04:48:32;;;;;;;3.35;1.95;;;;;;;17.83;100.00;99115.88;5054610;28;20061;-75
2023/07/25 04:50:59;;;;;;;2.13;1.55;;;;;;;17.90;100.00;99119.34;5054758;28;20061;-76
2023/07/25 04:53:24;;;;;;;4.65;2.08;;;;;;;17.94;100.00;99111.84;5054424;28;20021;-76
2023/07/25 04:55:51;;;;;;;5.07;2.17;;;;;;;18.08;100.00;99124.81;5054660;28;20040;-75
2023/07/25 04:58:17;;;;;;;4.30;1.90;;;;;;;18.08;100.00;99121.16;5054793;28;20028;-76
2023/07/25 05:00:44;;;;;;;3.40;2.30;;;;;;;18.17;100.00;99135.84;5019743;28;20037;-75
2023/07/25 05:03:10;;;;;;;3.70;2.00;;;;;;;18.24;100.00;99146.63;5054273;28;20032;-76
2023/07/25 05:05:39;;;;;;;4.40;1.80;;;;;;;18.32;100.00;99148.81;5018048;28;20108;-75
2023/07/25 05:08:05;;;;;;;3.45;1.73;;;;;;;18.38;100.00;99140.72;5041608;28;20040;-76
2023/07/25 05:10:31;;;;;;;3.63;1.98;;;;;;;18.38;100.00;99140.72;5053945;28;20108;-78
2023/07/25 05:12:57;;;;;;;4.30;1.50;;;;;;;18.40;100.00;99138.03;5053861;28;20129;-77
2023/07/25 05:15:23;;;;;;;2.50;1.90;;;;;;;18.45;100.00;99119.72;5053707;28;20060;-75
2023/07/25 05:17:49;;;;;;;3.45;1.85;;;;;;;18.47;100.00;99114.91;5030111;28;20033;-77
2023/07/25 05:20:18;;;;;;;2.83;1.85;;;;;;;18.49;100.00;99111.41;5053817;28;20059;-77
2023/07/25 05:22:45;;;;;;;3.25;1.65;;;;;;;18.58;100.00;99116.63;5053303;28;20116;-77
2023/07/25 05:25:11;;;;;;;4.85;2.00;;;;;;;18.66;100.00;99121.09;5053947;28;20056;-77
2023/07/25 05:27:41;;;;;;;4.40;2.05;;;;;;;18.70;100.00;99120.69;5019380;28;20048;-77
2023/07/25 05:30:10;;;;;;;3.13;1.85;;;;;;;18.75;100.00;99136.31;5036183;28;20448;-77
2023/07/25 05:32:37;;;;;;;3.63;2.08;;;;;;;18.79;100.00;99128.78;5035718;28;20060;-77
2023/07/25 05:35:04;;;;;;;3.88;1.98;;;;;;;18.89;100.00;99129.75;5053192;28;20041;-77
2023/07/25 05:37:38;;;;;;;2.30;1.80;;;;;;;19.01;100.00;99130.13;5053223;28;20028;-75
2023/07/25 05:40:08;;;;;;;3.60;1.70;;;;;;;19.10;100.00;99132.44;5035869;28;20065;-76
2023/07/25 05:42:34;;;;;;;1.98;1.77;;;;;;;19.24;100.00;99128.00;5053491;28;20043;-77
2023/07/25 05:45:00;;;;;;;4.20;2.03;;;;;;;19.38;100.00;99125.63;5019042;28;20127;-78
2023/07/25 05:47:26;;;;;;;4.25;2.00;;;;;;;19.46;100.00;99126.41;5035564;28;20110;-77
2023/07/25 05:49:53;;;;;;;4.38;1.92;;;;;;;19.57;100.00;99128.88;5002627;28;20095;-75
2023/07/25 05:52:18;;;;;;;2.70;1.88;;;;;;;19.68;100.00;99127.66;5034819;28;20040;-77
2023/07/25 05:54:45;;;;;;;2.55;1.90;;;;;;;19.79;100.00;99119.31;5035540;28;20139;-76
2023/07/25 05:57:11;;;;;;;5.18;2.15;;;;;;;19.90;100.00;99112.31;5052996;28;20028;-76
2023/07/25 05:59:43;;;;;;;3.72;2.22;;;;;;;20.02;100.00;99119.22;5052987;28;20044;-77
2023/07/25 06:02:16;;;;;;;2.92;1.67;;;;;;;20.10;100.00;99130.81;5053065;28;20448;-77
2023/07/25 06:04:45;;;;;;;4.93;2.70;;;;;;;20.18;100.00;99131.53;5053156;28;20448;-77
2023/07/25 06:07:14;;;;;;;3.15;1.88;;;;;;;20.20;100.00;99132.47;5035482;28;20041;-76
2023/07/25 06:09:40;;;;;;;5.03;2.10;;;;;;;20.24;100.00;99132.84;5035510;28;20061;-75
2023/07/25 06:12:09;;;;;;;3.90;1.90;;;;;;;20.31;100.00;99132.00;5053068;28;20035;-75
2023/07/25 06:14:36;;;;;;;5.53;1.80;;;;;;;20.50;100.00;99124.94;5030597;28;20041;-76
2023/07/25 06:17:02;;;;;;;3.20;1.75;;;;;;;20.82;100.00;99124.91;5031595;28;20103;-77
2023/07/25 06:19:29;;;;;;;7.53;2.20;;;;;;;21.09;100.00;99125.06;5033281;28;20035;-77
2023/07/25 06:21:55;;;;;;;4.53;2.13;;;;;;;21.20;100.00;99128.22;5031909;28;20120;-75
2023/07/25 06:24:26;;;;;;;5.50;2.08;;;;;;;21.42;100.00;99134.41;5015696;28;20597;-77
2023/07/25 06:26:52;;;;;;;;;;;;;;;21.59;100.00;99138.09;5033756;28;20045;-78
2023/07/25 06:29:18;;;;;;;5.85;1.85;;;;;;;21.76;100.00;99146.03;5014710;28;20281;-75
2023/07/25 06:31:43;;;;;;;3.10;1.90;;;;;;;22.04;100.00;99145.50;5033277;28;20029;-79
2023/07/25 06:34:15;;;;;;;10.55;2.10;;;;;;;22.76;100.00;99152.84;5032449;28;20048;-78
2023/07/25 06:36:40;;;;;;;4.00;1.83;;;;;;;23.56;100.00;99159.81;5032664;28;20032;-77
2023/07/25 06:39:09;;;;;;;3.17;1.80;;;;;;;24.24;100.00;99161.38;5032790;28;20371;-77
2023/07/25 06:41:36;;;;;;;3.40;1.85;;;;;;;24.76;100.00;99160.75;5032241;28;20033;-77
2023/07/25 06:44:01;;;;;;;2.63;1.67;;;;;;;25.65;100.00;99158.31;5032217;28;20037;-78
2023/07/25 06:46:28;;;;;;;4.13;1.98;;;;;;;26.96;91.34;99157.50;5032596;28;20140;-78
2023/07/25 06:48:55;;;;;;;3.28;1.70;;;;;;;28.19;91.94;99170.97;5032573;28;20494;-78
2023/07/25 06:51:22;;;;;;;3.60;1.65;;;;;;;29.38;73.87;99179.16;5032298;28;20041;-80
2023/07/25 06:53:51;;;;;;;6.20;1.80;;;;;;;30.24;65.97;99188.88;5032728;28;20049;-80
2023/07/25 06:56:18;;;;;;;4.93;2.45;;;;;;;30.68;65.79;99186.66;5031670;28;20039;-79
2023/07/25 06:58:44;;;;;;;2.53;1.63;;;;;;;30.99;54.68;99189.66;5032508;28;20041;-79
2023/07/25 07:01:09;;;;;;;4.53;2.20;;;;;;;30.54;51.96;99186.69;5032579;28;20041;-79
2023/07/25 07:03:37;;;;;;;2.40;1.60;;;;;;;30.26;53.90;99188.22;5031285;28;20538;-80
2023/07/25 07:06:04;;;;;;;3.10;1.92;;;;;;;29.99;56.04;99189.78;5032350;28;20326;-79
2023/07/25 07:08:31;;;;;;;2.92;1.60;;;;;;;29.44;55.10;99205.97;5032493;28;20083;-78
2023/07/25 07:10:58;;;;;;;3.92;1.52;;;;;;;29.04;60.98;99190.56;5032732;28;20386;-78
2023/07/25 07:13:24;;;;;;;2.63;2.22;;;;;;;29.12;59.31;99187.31;5039122;28;20087;-79
2023/07/25 07:15:52;;;;;;;4.47;1.30;;;;;;;29.39;57.64;99175.53;5034644;28;20502;-79
2023/07/25 07:18:18;;;;;;;3.97;2.13;;;;;;;29.59;57.67;99176.66;5052264;28;20028;-79
2023/07/25 07:20:48;;;;;;;4.80;1.83;;;;;;;29.61;53.18;99165.00;5044302;28;20037;-79
2023/07/25 07:23:15;;;;;;;1.60;1.50;;;;;;;29.20;57.56;99162.03;5050899;28;20115;-78
2023/07/25 07:25:43;;;;;;;4.47;1.52;;;;;;;29.25;59.36;99157.88;5052505;28;20180;-77
2023/07/25 07:28:08;;;;;;;9.60;2.88;;;;;;;29.40;57.15;99152.75;5056041;28;20029;-77
2023/07/25 07:30:35;;;;;;;9.77;1.80;;;;;;;29.41;57.14;99134.44;5052074;28;20167;-76
2023/07/25 07:33:00;;;;;;;4.35;1.88;;;;;;;29.73;58.66;99112.59;5054693;28;20037;-79
2023/07/25 07:35:30;;;;;;;2.30;1.83;;;;;;;30.31;53.17;99095.63;5055325;28;20044;-78
2023/07/25 07:37:56;;;;;;;2.67;1.95;;;;;;;30.84;50.60;99081.22;5055526;28;20369;-78
2023/07/25 07:40:23;;;;;;;6.65;2.40;;;;;;;31.22;46.82;99077.09;5055645;28;20139;-77
2023/07/25 07:42:48;;;;;;;4.90;1.95;;;;;;;31.13;45.79;99071.47;5055689;28;20017;-78
2023/07/25 07:45:16;;;;;;;10.57;1.55;;;;;;;31.18;45.86;99087.94;5055554;28;20035;-77
2023/07/25 07:47:42;;;;;;;3.88;1.50;;;;;;;31.35;45.03;99093.91;5055672;28;20124;-78
2023/07/25 07:50:08;;;;;;;2.53;1.67;;;;;;;31.73;45.05;99100.03;5045379;28;20112;-79
2023/07/25 07:52:40;;;;;;;5.88;1.98;;;;;;;32.20;43.35;99103.53;5035594;28;20104;-78
2023/07/25 07:55:10;;;;;;;4.97;2.03;;;;;;;32.46;40.44;99114.91;5035754;28;20108;-79
2023/07/25 07:57:44;;;;;;;2.95;1.60;;;;;;;32.70;40.37;99115.91;5034441;28;20052;-78
2023/07/25 08:00:13;;;;;;;2.95;1.63;;;;;;;33.15;40.25;99109.50;5017708;28;20117;-80
2023/07/25 08:02:46;;;;;;;4.30;1.50;;;;;;;33.62;38.87;99129.81;5035634;28;20028;-79
2023/07/25 08:05:14;;;;;;;6.25;2.10;;;;;;;34.14;37.00;99136.84;5034972;28;20513;-79
2023/07/25 08:07:41;;;;;;;2.50;1.83;;;;;;;33.88;36.07;99141.84;5034528;28;20041;-80
2023/07/25 08:10:08;;;;;;;3.55;1.67;;;;;;;33.16;36.49;99128.81;5034155;28;20052;-79
2023/07/25 08:12:33;;;;;;;3.22;1.77;;;;;;;32.66;37.14;99145.31;5033855;28;20032;-77
2023/07/25 08:15:00;;;;;;;2.33;1.25;;;;;;;32.08;38.79;99141.44;5034982;28;20049;-78
2023/07/25 08:17:25;;;;;;;2.72;1.70;;;;;;;31.72;39.79;99134.72;5035019;28;20036;-77
2023/07/25 08:19:53;;;;;;;1.90;1.60;;;;;;;31.67;39.85;99141.09;5039848;28;20402;-79
2023/07/25 08:22:18;;;;;;;4.05;1.77;;;;;;;31.47;40.72;99140.94;5054401;28;20044;-79
2023/07/25 08:24:43;;;;;;;4.18;1.75;;;;;;;31.49;41.11;99158.00;5054718;28;20090;-76
2023/07/25 08:27:10;;;;;;;3.95;1.63;;;;;;;31.38;40.55;99163.47;5054641;28;20356;-81
2023/07/25 08:29:45;;;;;;;1.55;1.45;;;;;;;31.23;40.76;99169.38;5054784;28;20127;-81
2023/07/25 08:32:11;;;;;;;2.45;1.38;;;;;;;31.05;41.33;99174.41;5055297;28;20051;-81
2023/07/25 08:34:38;;;;;;;3.08;1.80;;;;;;;30.78;42.46;99176.09;5052486;28;20087;-80
2023/07/25 08:37:06;;;;;;;11.95;2.88;;;;;;;30.28;43.55;99167.69;5036583;28;20032;-82
2023/07/25 08:39:32;;;;;;;5.45;1.38;;;;;;;29.90;46.64;99154.69;5036586;28;20466;-81
2023/07/25 08:41:59;;;;;;;1.75;1.48;;;;;;;29.74;47.36;99145.75;5054614;28;20104;-80
2023/07/25 08:44:26;;;;;;;2.60;1.45;;;;;;;29.87;48.71;99150.13;5055338;28;20373;-83
2023/07/25 08:46:53;;;;;;;1.77;1.45;;;;;;;30.13;47.26;99154.41;5055471;28;20029;-81
2023/07/25 08:49:23;;;;;;;8.38;1.83;;;;;;;30.38;44.93;99141.66;5054720;28;20143;-81
2023/07/25 08:51:51;;;;;;;1.98;1.70;;;;;;;30.46;44.89;99136.16;5054943;28;20028;-80
2023/07/25 08:54:30;;;;;;;3.22;1.77;;;;;;;30.52;43.79;99130.53;5054853;28;20021;-80
2023/07/25 08:56:55;;;;;;;4.50;1.80;;;;;;;30.73;43.88;99141.16;5054542;28;20036;-79
2023/07/25 08:59:22;;;;;;;4.05;1.70;;;;;;;30.91;43.49;99124.31;5054816;28;20017;-81
2023/07/25 09:01:47;;;;;;;5.55;1.60;;;;;;;31.30;43.27;99126.91;5054800;28;20086;-79
2023/07/25 09:04:14;;;;;;;7.70;2.08;;;;;;;31.60;41.84;99128.25;5054730;28;20028;-80
2023/07/25 09:06:39;;;;;;;6.25;1.58;;;;;;;31.54;39.21;99142.00;5054615;28;20039;-81
2023/07/25 09:09:06;;;;;;;2.03;1.35;;;;;;;31.18;39.69;99127.09;5054840;28;20378;-80
2023/07/25 09:11:33;;;;;;;3.53;1.50;;;;;;;31.07;42.06;99130.22;5054432;28;20029;-80
2023/07/25 09:13:58;;;;;;;3.72;1.90;;;;;;;31.11;42.16;99142.19;5054045;28;20049;-81
2023/07/25 09:16:23;;;;;;;6.97;1.48;;;;;;;31.23;41.88;99128.81;5054436;28;20100;-80
2023/07/25 09:18:49;;;;;;;3.88;1.85;;;;;;;31.22;40.84;99118.41;5054461;28;20095;-81
2023/07/25 09:21:15;;;;;;;4.65;1.90;;;;;;;30.97;40.69;99130.50;5054227;28;20039;-79
2023/07/25 09:23:58;;;;;;;7.40;1.65;;;;;;;30.80;40.60;99131.19;5054422;28;20021;-80
2023/07/25 09:26:26;;;;;;;2.83;1.75;;;;;;;30.67;41.04;99147.53;5054233;28;20375;-81
2023/07/25 09:28:53;;;;;;;2.40;1.63;;;;;;;30.68;41.76;99151.25;5036007;28;20031;-80
2023/07/25 09:31:19;;;;;;;9.02;1.80;;;;;;;30.67;42.15;99155.63;5053957;28;20048;-80
2023/07/25 09:33:50;;;;;;;2.00;1.30;;;;;;;30.47;40.73;99153.19;5019966;28;20077;-80
2023/07/25 09:36:16;;;;;;;1.42;1.33;;;;;;;30.25;41.85;99146.19;5036144;28;20031;-80
2023/07/25 09:38:54;;;;;;;2.63;1.70;;;;;;;30.04;43.17;99129.63;5053799;28;20017;-80
2023/07/25 09:41:24;;;;;;;4.68;1.50;;;;;;;29.94;43.27;99125.41;5053724;28;20086;-80
2023/07/25 09:43:50;;;;;;;4.45;2.00;;;;;;;29.83;43.01;99123.38;5035896;28;20478;-80
2023/07/25 09:46:15;;;;;;;4.55;1.65;;;;;;;29.58;43.13;99121.34;5053830;28;20108;-80
2023/07/25 09:48:46;;;;;;;3.28;1.35;;;;;;;29.37;43.92;99112.84;5053567;28;20159;-79
2023/07/25 09:51:12;;;;;;;2.25;1.38;;;;;;;29.13;44.72;99112.34;5053660;28;20033;-78
2023/07/25 09:53:41;;;;;;;4.80;1.70;;;;;;;28.97;44.34;99126.13;5035632;28;20036;-78
2023/07/25 09:56:07;;;;;;;5.85;2.08;;;;;;;28.77;44.00;99117.72;5053677;28;20025;-78
2023/07/25 09:58:33;;;;;;;8.07;2.05;;;;;;;28.53;44.79;99109.72;5035932;28;20031;-78
2023/07/25 10:01:00;;;;;;;2.35;1.70;;;;;;;28.14;44.96;99098.69;5035555;28;20025;-78
2023/07/25 10:03:27;;;;;;;2.78;1.35;;;;;;;27.87;47.55;99102.22;5035572;28;20496;-78
2023/07/25 10:05:52;;;;;;;3.28;1.40;;;;;;;27.72;48.02;99099.09;5053473;28;20025;-79
2023/07/25 10:08:18;;;;;;;1.92;1.38;;;;;;;27.70;49.19;99093.84;5052179;28;20360;-78
2023/07/25 10:10:44;;;;;;;7.13;1.75;;;;;;;27.76;48.47;99093.44;5035575;28;20379;-78
2023/07/25 10:13:10;;;;;;;2.88;1.77;;;;;;;27.54;46.04;99105.41;5035398;28;20041;-78
2023/07/25 10:15:35;;;;;;;6.22;1.73;;;;;;;27.31;48.38;99095.88;5053393;28;20099;-77
2023/07/25 10:18:20;;;;;;;2.15;1.40;;;;;;;27.14;48.54;99097.81;5053307;28;20086;-77
2023/07/25 10:20:47;;;;;;;5.43;1.83;;;;;;;27.03;48.70;99080.22;5035536;28;20021;-79
2023/07/25 10:23:13;;;;;;;3.97;1.70;;;;;;;27.04;51.15;99087.63;5053305;28;20048;-78
2023/07/25 10:25:39;;;;;;;2.47;1.60;;;;;;;26.94;50.93;99081.13;5053394;28;20017;-78
2023/07/25 10:28:04;;;;;;;3.55;1.60;;;;;;;26.92;52.14;99092.72;5052065;28;20112;-78
2023/07/25 10:30:40;;;;;;;5.63;1.70;;;;;;;27.08;51.91;99093.72;5053379;28;20053;-78
2023/07/25 10:33:07;;;;;;;7.13;2.42;;;;;;;27.23;52.22;99089.50;5053016;28;20032;-78
2023/07/25 10:35:49;;;;;;;12.65;2.15;;;;;;;27.17;51.00;99078.91;5035628;28;20107;-79
2023/07/25 10:38:32;;;;;;;4.30;2.20;;;;;;;27.20;50.49;99062.22;5053343;28;20017;-77
2023/07/25 10:41:01;;;;;;;4.38;1.88;;;;;;;27.15;50.30;99057.50;5053068;28;20513;-77
2023/07/25 10:43:46;;;;;;;6.40;2.08;;;;;;;27.15;49.23;99063.38;5035128;28;20498;-78
2023/07/25 10:46:17;;;;;;;5.10;2.00;;;;;;;27.11;50.25;99063.09;5052973;28;20029;-77
2023/07/25 10:48:47;;;;;;;3.33;1.70;;;;;;;27.12;49.58;99065.41;5053153;28;20028;-77
2023/07/25 10:51:15;;;;;;;5.30;1.90;;;;;;;27.05;48.89;99066.47;5035893;28;20087;-80
2023/07/25 10:53:42;;;;;;;4.32;2.00;;;;;;;27.00;48.47;99075.66;5052998;28;20112;-78
2023/07/25 10:56:08;;;;;;;4.38;2.08;;;;;;;26.94;50.09;99072.31;5035023;28;20123;-78
2023/07/25 10:58:38;;;;;;;2.72;2.13;;;;;;;26.84;49.25;99066.59;5053059;28;20028;-78
2023/07/25 11:01:04;;;;;;;5.72;2.30;;;;;;;26.90;50.71;99081.66;5053354;28;20545;-77
2023/07/25 11:03:32;;;;;;;4.07;2.22;;;;;;;26.85;50.35;99079.09;5039062;28;20104;-78
2023/07/25 11:06:06;;;;;;;3.45;2.20;;;;;;;26.73;50.88;99082.03;5038930;28;20451;-79
2023/07/25 11:08:41;;;;;;;2.70;2.22;;;;;;;26.43;52.17;99056.63;5057042;28;20033;-77
2023/07/25 11:11:12;;;;;;;8.43;2.10;;;;;;;26.36;54.83;99073.06;5057295;28;20386;-78
2023/07/25 11:13:40;;;;;;;7.75;2.30;;;;;;;26.29;54.77;99068.97;5056593;28;20045;-78
2023/07/25 11:16:10;;;;;;;2.20;2.10;;;;;;;26.23;54.91;99070.72;5056718;28;20356;-78
2023/07/25 11:18:37;;;;;;;5.10;1.95;;;;;;;26.08;54.68;99051.44;5056442;28;20438;-78
2023/07/25 11:21:07;;;;;;;5.13;2.03;;;;;;;26.23;54.70;99056.06;5056672;28;20021;-79
2023/07/25 11:23:33;;;;;;;4.22;1.90;;;;;;;26.22;52.49;99057.50;5022077;28;20056;-78
2023/07/25 11:26:02;;;;;;;2.45;1.73;;;;;;;26.18;52.20;99049.19;5056526;28;20108;-79
2023/07/25 11:28:27;;;;;;;2.55;2.10;;;;;;;26.09;54.10;99055.91;5056322;28;20025;-78
2023/07/25 11:30:53;;;;;;;5.45;2.15;;;;;;;26.10;55.07;99056.66;5056424;28;20025;-80